Main page
METAR-TAF:

METAR-TAF

Airports :

Den Helder, Netherlands

De Kooy Airfield

latitude: 52-55N, longitude: 004-47E, elevation: 0 m

Current weather observation

The report was made 23 minutes ago, at 00:55 UTC
Wind 14 kt from the West/Southwest
Temperature 9°C
Humidity 93%
Pressure 1020 hPa
Visibility: 8000 m
Few clouds at a height of 8300 ft
Broken clouds at a height of 12000 ft
mist

METAR: EHKD 290055Z AUTO 24014KT 8000 BR FEW083 BKN120 09/08 Q1020 BLU

Time: 03:18 (01:18 UTC)

Forecast

The report was made 8 hours and 19 minutes ago, at 16:59 UTC
Forecast valid from 28 at 17 UTC to 29 at 05 UTC
Wind 10 kt from the West/Southwest
Visibility: 7000 m
Broken clouds at a height of 6000 ft
Becoming
from 28 at 20 UTC to 28 at 22 UTC
Wind 15 kt from the Southwest with gusts up to 25 kt
Few clouds at a height of 3000 ft
Scattered clouds at a height of 4000 ft

TAF: EHKD 281659Z 2817/2905 24010KT 7000 BKN060 BECMG 2820/2822 23015G25KT FEW030 SCT040 CNL 282200Z

Weather observations and forecasts of more than 4000 airports (METAR and TAF reports).

The available stations are represented by yellow and red dots on the map.

Hover mouse over dot to see the name of the station.

Then click to see weather observations and forecasts.

To change the map : click on the green buttons with a black cross to zoom in, on the green button with a dash to zoom out, or on the green arrows for adjacent maps.


METAR-TAF: